Ever Ursula — 3FCB9 — position and weather

sailwx.info

Track history (hours):
 
Tides and Currents Weather Stations Pressure Air Temp Water Temp Dewpoint Dewpoint Depression Visibility Wind Speed Wind Dir Waves Ship Positions

Ever Ursula

Last reported at 2018-Apr-19 08:45 UTC. Time now 2018-Apr-26 15:33 UTC.
Position N 01°25' E 103°10'.

Type: Cargo ship. MMSI: 357737000.

Date/timePositionNaut miles runAvg speedWind from/ knotsBaromVisibWave heightAir tempDewpointWater temp
2018-Apr-19 08:45N 01°25' E 103°10'814.6
2018-Apr-19 08:10N 01°20' E 103°17'314.6
2018-Apr-19 07:59N 01°18' E 103°20'713.8
2018-Apr-19 07:30N 01°14' E 103°25'713.2
2018-Apr-19 06:59N 01°14' E 103°32'611.4
2018-Apr-19 06:30N 01°19' E 103°33'3 6.2
2018-Apr-19 05:58N 01°22' E 103°32'0 0.3
2018-Apr-19 05:30N 01°22' E 103°33'0 0.0
2018-Apr-19 04:59N 01°22' E 103°33'0 0.0
2018-Apr-19 04:29N 01°22' E 103°33'0 0.0
2018-Apr-19 03:59N 01°22' E 103°33'0 0.0
2018-Apr-19 03:29N 01°22' E 103°33'0 0.0
2018-Apr-19 02:56N 01°22' E 103°33'0 0.0
2018-Apr-19 02:29N 01°22' E 103°33'0 0.0
2018-Apr-19 01:59N 01°22' E 103°33'0 0.0
2018-Apr-19 01:29N 01°22' E 103°33'0 0.0
2018-Apr-19 00:59N 01°22' E 103°33'0 0.0
2018-Apr-19 00:29N 01°22' E 103°33'0 0.0
2018-Apr-18 23:59N 01°22' E 103°33'0 0.0
2018-Apr-18 23:26N 01°22' E 103°33'0 0.0
2018-Apr-18 22:56N 01°22' E 103°33'0 0.0
2018-Apr-18 22:26N 01°22' E 103°33'0 0.0
2018-Apr-18 21:53N 01°22' E 103°33'0 0.0
2018-Apr-18 21:08N 01°22' E 103°33'0 0.0
2018-Apr-18 20:59N 01°22' E 103°33'0 0.0
2018-Apr-18 20:29N 01°22' E 103°33'0 0.1
2018-Apr-18 19:58N 01°22' E 103°33'2 5.5
2018-Apr-18 19:30N 01°20' E 103°33'510.8
2018-Apr-18 19:00N 01°14' E 103°32'3 5.4
2018-Apr-18 18:29N 01°12' E 103°34'3 6.7
2018-Apr-18 18:00N 01°12' E 103°37'4 7.1
2018-Apr-18 17:30N 01°10' E 103°41'4 7.0
2018-Apr-18 17:00N 01°09' E 103°44'3 6.3
2018-Apr-18 16:29N 01°10' E 103°47'510.9
2018-Apr-18 16:00N 01°12' E 103°51'713.9
2018-Apr-18 15:30N 01°15' E 103°58'714.2
2018-Apr-18 15:00N 01°16' E 104°05'  
2018-Apr-13 16:42N 23°13' E 117°32'415.4
2018-Apr-13 16:28N 23°16' E 117°34'613.6
2018-Apr-13 16:00N 23°20' E 117°39'815.0
2018-Apr-13 15:30N 23°24' E 117°47'715.1
2018-Apr-13 15:01N 23°28' E 117°53'814.5
2018-Apr-13 14:28N 23°32' E 118°01'714.4
2018-Apr-13 14:00N 23°36' E 118°07'714.1
2018-Apr-13 13:30N 23°41' E 118°13'714.1
2018-Apr-13 13:01N 23°44' E 118°19'713.8
2018-Apr-13 12:30N 23°48' E 118°25'816.1
2018-Apr-13 12:00N 23°52' E 118°33'816.1
2018-Apr-13 11:30N 23°57' E 118°40'816.2
2018-Apr-13 11:00N 24°01' E 118°48'815.9
2018-Apr-13 10:30N 24°06' E 118°55'816.0
2018-Apr-13 10:00N 24°11' E 119°02'815.8
2018-Apr-13 09:30N 24°16' E 119°08'917.4
2018-Apr-13 09:00N 24°20' E 119°17'1518.7
2018-Apr-13 08:11N 24°29' E 119°30'418.0
2018-Apr-13 07:59N 24°31' E 119°34'7018.9
2018-Apr-13 04:16N 25°03' E 120°42'517.8
2018-Apr-13 04:00N 25°05' E 120°47'815.8
2018-Apr-13 03:30N 25°08' E 120°55'612.3
2018-Apr-13 03:00N 25°11' E 121°01'611.4
2018-Apr-13 02:30N 25°13' E 121°07'612.1
2018-Apr-13 02:00N 25°15' E 121°13'5 9.6
2018-Apr-13 01:30N 25°13' E 121°18'510.7
2018-Apr-13 01:00N 25°09' E 121°22'1 2.1
2018-Apr-13 00:30N 25°10' E 121°23'0 0.0
2018-Apr-13 00:00N 25°10' E 121°23'0 0.0
2018-Apr-12 23:30N 25°10' E 121°23'0 0.0
2018-Apr-12 22:08N 25°10' E 121°23'0 0.0
2018-Apr-12 21:56N 25°10' E 121°23'0 0.0
2018-Apr-12 18:26N 25°10' E 121°23'0 0.0
2018-Apr-12 16:44N 25°10' E 121°23'0 0.0
2018-Apr-12 16:17N 25°10' E 121°23'0 0.1
2018-Apr-12 15:59N 25°10' E 121°23'0 0.0
2018-Apr-12 15:30N 25°10' E 121°23'2 3.5
2018-Apr-12 15:00N 25°09' E 121°21'3 6.5
2018-Apr-12 14:29N 25°11' E 121°18'511.0
2018-Apr-12 14:00N 25°15' E 121°15'612.1
2018-Apr-12 13:30N 25°21' E 121°16'612.4
2018-Apr-12 13:00N 25°27' E 121°19'612.5
2018-Apr-12 12:30N 25°33' E 121°21'29919.4
2018-Apr-11 21:05N 30°17' E 123°08'1719.8
2018-Apr-11 20:15N 30°33' E 123°12'819.4
2018-Apr-11 19:51N 30°40' E 123°15'717.1
2018-Apr-11 19:28N 30°46' E 123°12'919.3
2018-Apr-11 19:00N 30°52' E 123°03'1118.6
2018-Apr-11 18:25N 30°58' E 122°53'716.9
2018-Apr-11 18:00N 31°04' E 122°48'816.0
2018-Apr-11 17:30N 31°05' E 122°39'814.8
2018-Apr-11 17:00N 31°05' E 122°31'510.7
2018-Apr-11 16:30N 31°06' E 122°24'1514.4
2018-Apr-11 15:27N 31°12' E 122°08'714.3
2018-Apr-11 14:57N 31°15' E 122°00'714.8
2018-Apr-11 14:30N 31°16' E 121°53'714.2
2018-Apr-11 13:59N 31°19' E 121°45'5 7.6
2018-Apr-11 13:23N 31°20' E 121°40'0 0.0
2018-Apr-11 09:19N 31°20' E 121°40'0 0.0
2018-Apr-11 02:01N 31°20' E 121°40'0 0.0
2018-Apr-11 01:59N 31°20' E 121°40'2 3.0
2018-Apr-11 01:22N 31°20' E 121°42'411.6
2018-Apr-11 01:00N 31°18' E 121°46'815.1
2018-Apr-11 00:28N 31°16' E 121°55'2 3.2
2018-Apr-10 23:57N 31°15' E 121°57'510.4
2018-Apr-10 23:30N 31°14' E 122°03'  
Track history (hours):
 
Tides and Currents Weather Stations Pressure Air Temp Water Temp Dewpoint Dewpoint Depression Visibility Wind Speed Wind Dir Waves Ship Positions

Ever Ursula

Last reported at 2018-Apr-19 08:45 UTC. Time now 2018-Apr-26 15:33 UTC.
Position N 01°25' E 103°10'.

Type: Cargo ship. MMSI: 357737000.

Date/timePositionNaut miles runAvg speedWind from/ knotsBaromVisibWave heightAir tempDewpointWater temp
2018-Apr-19 08:45N 01°25' E 103°10'814.6
2018-Apr-19 08:10N 01°20' E 103°17'314.6
2018-Apr-19 07:59N 01°18' E 103°20'713.8
2018-Apr-19 07:30N 01°14' E 103°25'713.2
2018-Apr-19 06:59N 01°14' E 103°32'611.4
2018-Apr-19 06:30N 01°19' E 103°33'3 6.2
2018-Apr-19 05:58N 01°22' E 103°32'0 0.3
2018-Apr-19 05:30N 01°22' E 103°33'0 0.0
2018-Apr-19 04:59N 01°22' E 103°33'0 0.0
2018-Apr-19 04:29N 01°22' E 103°33'0 0.0
2018-Apr-19 03:59N 01°22' E 103°33'0 0.0
2018-Apr-19 03:29N 01°22' E 103°33'0 0.0
2018-Apr-19 02:56N 01°22' E 103°33'0 0.0
2018-Apr-19 02:29N 01°22' E 103°33'0 0.0
2018-Apr-19 01:59N 01°22' E 103°33'0 0.0
2018-Apr-19 01:29N 01°22' E 103°33'0 0.0
2018-Apr-19 00:59N 01°22' E 103°33'0 0.0
2018-Apr-19 00:29N 01°22' E 103°33'0 0.0
2018-Apr-18 23:59N 01°22' E 103°33'0 0.0
2018-Apr-18 23:26N 01°22' E 103°33'0 0.0
2018-Apr-18 22:56N 01°22' E 103°33'0 0.0
2018-Apr-18 22:26N 01°22' E 103°33'0 0.0
2018-Apr-18 21:53N 01°22' E 103°33'0 0.0
2018-Apr-18 21:08N 01°22' E 103°33'0 0.0
2018-Apr-18 20:59N 01°22' E 103°33'0 0.0
2018-Apr-18 20:29N 01°22' E 103°33'0 0.1
2018-Apr-18 19:58N 01°22' E 103°33'2 5.5
2018-Apr-18 19:30N 01°20' E 103°33'510.8
2018-Apr-18 19:00N 01°14' E 103°32'3 5.4
2018-Apr-18 18:29N 01°12' E 103°34'3 6.7
2018-Apr-18 18:00N 01°12' E 103°37'4 7.1
2018-Apr-18 17:30N 01°10' E 103°41'4 7.0
2018-Apr-18 17:00N 01°09' E 103°44'3 6.3
2018-Apr-18 16:29N 01°10' E 103°47'510.9
2018-Apr-18 16:00N 01°12' E 103°51'713.9
2018-Apr-18 15:30N 01°15' E 103°58'714.2
2018-Apr-18 15:00N 01°16' E 104°05'  
2018-Apr-13 16:42N 23°13' E 117°32'415.4
2018-Apr-13 16:28N 23°16' E 117°34'613.6
2018-Apr-13 16:00N 23°20' E 117°39'815.0
2018-Apr-13 15:30N 23°24' E 117°47'715.1
2018-Apr-13 15:01N 23°28' E 117°53'814.5
2018-Apr-13 14:28N 23°32' E 118°01'714.4
2018-Apr-13 14:00N 23°36' E 118°07'714.1
2018-Apr-13 13:30N 23°41' E 118°13'714.1
2018-Apr-13 13:01N 23°44' E 118°19'713.8
2018-Apr-13 12:30N 23°48' E 118°25'816.1
2018-Apr-13 12:00N 23°52' E 118°33'816.1
2018-Apr-13 11:30N 23°57' E 118°40'816.2
2018-Apr-13 11:00N 24°01' E 118°48'815.9
2018-Apr-13 10:30N 24°06' E 118°55'816.0
2018-Apr-13 10:00N 24°11' E 119°02'815.8
2018-Apr-13 09:30N 24°16' E 119°08'917.4
2018-Apr-13 09:00N 24°20' E 119°17'1518.7
2018-Apr-13 08:11N 24°29' E 119°30'418.0
2018-Apr-13 07:59N 24°31' E 119°34'7018.9
2018-Apr-13 04:16N 25°03' E 120°42'517.8
2018-Apr-13 04:00N 25°05' E 120°47'815.8
2018-Apr-13 03:30N 25°08' E 120°55'612.3
2018-Apr-13 03:00N 25°11' E 121°01'611.4
2018-Apr-13 02:30N 25°13' E 121°07'612.1
2018-Apr-13 02:00N 25°15' E 121°13'5 9.6
2018-Apr-13 01:30N 25°13' E 121°18'510.7
2018-Apr-13 01:00N 25°09' E 121°22'1 2.1
2018-Apr-13 00:30N 25°10' E 121°23'0 0.0
2018-Apr-13 00:00N 25°10' E 121°23'0 0.0
2018-Apr-12 23:30N 25°10' E 121°23'0 0.0
2018-Apr-12 22:08N 25°10' E 121°23'0 0.0
2018-Apr-12 21:56N 25°10' E 121°23'0 0.0
2018-Apr-12 18:26N 25°10' E 121°23'0 0.0
2018-Apr-12 16:44N 25°10' E 121°23'0 0.0
2018-Apr-12 16:17N 25°10' E 121°23'0 0.1
2018-Apr-12 15:59N 25°10' E 121°23'0 0.0
2018-Apr-12 15:30N 25°10' E 121°23'2 3.5
2018-Apr-12 15:00N 25°09' E 121°21'3 6.5
2018-Apr-12 14:29N 25°11' E 121°18'511.0
2018-Apr-12 14:00N 25°15' E 121°15'612.1
2018-Apr-12 13:30N 25°21' E 121°16'612.4
2018-Apr-12 13:00N 25°27' E 121°19'612.5
2018-Apr-12 12:30N 25°33' E 121°21'29919.4
2018-Apr-11 21:05N 30°17' E 123°08'1719.8
2018-Apr-11 20:15N 30°33' E 123°12'819.4
2018-Apr-11 19:51N 30°40' E 123°15'717.1
2018-Apr-11 19:28N 30°46' E 123°12'919.3
2018-Apr-11 19:00N 30°52' E 123°03'1118.6
2018-Apr-11 18:25N 30°58' E 122°53'716.9
2018-Apr-11 18:00N 31°04' E 122°48'816.0
2018-Apr-11 17:30N 31°05' E 122°39'814.8
2018-Apr-11 17:00N 31°05' E 122°31'510.7
2018-Apr-11 16:30N 31°06' E 122°24'1514.4
2018-Apr-11 15:27N 31°12' E 122°08'714.3
2018-Apr-11 14:57N 31°15' E 122°00'714.8
2018-Apr-11 14:30N 31°16' E 121°53'714.2
2018-Apr-11 13:59N 31°19' E 121°45'5 7.6
2018-Apr-11 13:23N 31°20' E 121°40'0 0.0
2018-Apr-11 09:19N 31°20' E 121°40'0 0.0
2018-Apr-11 02:01N 31°20' E 121°40'0 0.0
2018-Apr-11 01:59N 31°20' E 121°40'2 3.0
2018-Apr-11 01:22N 31°20' E 121°42'411.6
2018-Apr-11 01:00N 31°18' E 121°46'815.1
2018-Apr-11 00:28N 31°16' E 121°55'2 3.2
2018-Apr-10 23:57N 31°15' E 121°57'510.4
2018-Apr-10 23:30N 31°14' E 122°03'  

Dump ship's entire track history